sensor_id;sensor_type;location;lat;lon;timestamp;P1;durP1;ratioP1;P2;durP2;ratioP2
13660;SDS011;6903;49.480;11.102;2023-03-12T00:01:19;16.27;;;11.83;;
13660;SDS011;6903;49.480;11.102;2023-03-12T00:03:46;17.03;;;11.10;;
13660;SDS011;6903;49.480;11.102;2023-03-12T00:06:12;16.20;;;11.17;;
13660;SDS011;6903;49.480;11.102;2023-03-12T00:08:37;15.87;;;11.40;;
13660;SDS011;6903;49.480;11.102;2023-03-12T00:11:05;16.87;;;11.13;;
13660;SDS011;6903;49.480;11.102;2023-03-12T00:13:31;15.53;;;10.57;;
13660;SDS011;6903;49.480;11.102;2023-03-12T00:16:01;15.17;;;10.40;;
13660;SDS011;6903;49.480;11.102;2023-03-12T00:18:28;15.10;;;10.40;;
13660;SDS011;6903;49.480;11.102;2023-03-12T00:20:53;15.83;;;10.23;;
13660;SDS011;6903;49.480;11.102;2023-03-12T00:23:19;16.03;;;9.70;;
13660;SDS011;6903;49.480;11.102;2023-03-12T00:25:44;17.20;;;10.20;;
13660;SDS011;6903;49.480;11.102;2023-03-12T00:28:10;13.03;;;9.20;;
13660;SDS011;6903;49.480;11.102;2023-03-12T00:30:35;13.83;;;9.40;;
13660;SDS011;6903;49.480;11.102;2023-03-12T00:33:01;15.03;;;9.63;;
13660;SDS011;6903;49.480;11.102;2023-03-12T00:35:26;12.73;;;9.60;;
13660;SDS011;6903;49.480;11.102;2023-03-12T00:37:51;15.73;;;9.70;;
13660;SDS011;6903;49.480;11.102;2023-03-12T00:40:17;13.13;;;9.03;;
13660;SDS011;6903;49.480;11.102;2023-03-12T00:42:42;12.53;;;9.00;;
13660;SDS011;6903;49.480;11.102;2023-03-12T00:45:08;14.20;;;8.77;;
13660;SDS011;6903;49.480;11.102;2023-03-12T00:47:33;12.57;;;8.80;;
13660;SDS011;6903;49.480;11.102;2023-03-12T00:49:58;15.47;;;9.17;;
13660;SDS011;6903;49.480;11.102;2023-03-12T00:52:24;12.17;;;8.90;;
13660;SDS011;6903;49.480;11.102;2023-03-12T00:54:49;11.83;;;8.23;;
13660;SDS011;6903;49.480;11.102;2023-03-12T00:57:14;12.77;;;8.50;;
13660;SDS011;6903;49.480;11.102;2023-03-12T00:59:40;14.27;;;8.93;;
13660;SDS011;6903;49.480;11.102;2023-03-12T01:02:06;11.80;;;8.10;;
13660;SDS011;6903;49.480;11.102;2023-03-12T01:04:32;10.37;;;7.50;;
13660;SDS011;6903;49.480;11.102;2023-03-12T01:06:58;11.00;;;7.90;;
13660;SDS011;6903;49.480;11.102;2023-03-12T01:09:23;10.13;;;7.50;;
13660;SDS011;6903;49.480;11.102;2023-03-12T01:11:49;13.10;;;7.93;;
13660;SDS011;6903;49.480;11.102;2023-03-12T01:14:14;9.87;;;7.03;;
13660;SDS011;6903;49.480;11.102;2023-03-12T01:16:39;10.97;;;7.70;;
13660;SDS011;6903;49.480;11.102;2023-03-12T01:19:05;9.63;;;7.17;;
13660;SDS011;6903;49.480;11.102;2023-03-12T01:21:30;12.10;;;7.80;;
13660;SDS011;6903;49.480;11.102;2023-03-12T01:23:55;11.47;;;7.50;;
13660;SDS011;6903;49.480;11.102;2023-03-12T01:26:21;10.60;;;7.40;;
13660;SDS011;6903;49.480;11.102;2023-03-12T01:28:47;11.07;;;7.30;;
13660;SDS011;6903;49.480;11.102;2023-03-12T01:31:13;10.10;;;7.30;;
13660;SDS011;6903;49.480;11.102;2023-03-12T01:33:40;9.37;;;6.60;;
13660;SDS011;6903;49.480;11.102;2023-03-12T01:36:20;9.20;;;6.60;;
13660;SDS011;6903;49.480;11.102;2023-03-12T01:38:46;12.07;;;6.93;;
13660;SDS011;6903;49.480;11.102;2023-03-12T01:41:15;9.43;;;7.00;;
13660;SDS011;6903;49.480;11.102;2023-03-12T01:43:40;11.00;;;7.07;;
13660;SDS011;6903;49.480;11.102;2023-03-12T01:48:59;10.83;;;6.77;;
13660;SDS011;6903;49.480;11.102;2023-03-12T01:51:34;9.10;;;6.60;;
13660;SDS011;6903;49.480;11.102;2023-03-12T01:54:05;10.00;;;6.83;;
13660;SDS011;6903;49.480;11.102;2023-03-12T01:56:34;9.53;;;6.33;;
13660;SDS011;6903;49.480;11.102;2023-03-12T01:59:03;9.80;;;6.10;;
13660;SDS011;6903;49.480;11.102;2023-03-12T02:01:34;9.20;;;6.03;;
13660;SDS011;6903;49.480;11.102;2023-03-12T02:04:00;9.07;;;6.57;;
13660;SDS011;6903;49.480;11.102;2023-03-12T02:06:34;9.03;;;6.03;;
13660;SDS011;6903;49.480;11.102;2023-03-12T02:09:09;9.43;;;6.50;;
13660;SDS011;6903;49.480;11.102;2023-03-12T02:11:36;11.67;;;6.80;;
13660;SDS011;6903;49.480;11.102;2023-03-12T02:14:01;9.53;;;7.00;;
13660;SDS011;6903;49.480;11.102;2023-03-12T02:16:27;8.73;;;6.90;;
13660;SDS011;6903;49.480;11.102;2023-03-12T02:18:53;11.93;;;6.80;;
13660;SDS011;6903;49.480;11.102;2023-03-12T02:21:22;10.30;;;7.03;;
13660;SDS011;6903;49.480;11.102;2023-03-12T02:26:27;10.60;;;6.90;;
13660;SDS011;6903;49.480;11.102;2023-03-12T02:28:53;10.93;;;7.23;;
13660;SDS011;6903;49.480;11.102;2023-03-12T02:31:21;9.87;;;6.90;;
13660;SDS011;6903;49.480;11.102;2023-03-12T02:33:49;10.47;;;6.73;;
13660;SDS011;6903;49.480;11.102;2023-03-12T02:36:17;10.90;;;7.60;;
13660;SDS011;6903;49.480;11.102;2023-03-12T02:38:50;10.10;;;7.47;;
13660;SDS011;6903;49.480;11.102;2023-03-12T02:41:19;10.43;;;7.03;;
13660;SDS011;6903;49.480;11.102;2023-03-12T02:43:48;11.43;;;6.90;;
13660;SDS011;6903;49.480;11.102;2023-03-12T02:46:19;8.87;;;6.57;;
13660;SDS011;6903;49.480;11.102;2023-03-12T02:48:44;9.27;;;6.83;;
13660;SDS011;6903;49.480;11.102;2023-03-12T02:51:09;9.73;;;7.17;;
13660;SDS011;6903;49.480;11.102;2023-03-12T02:53:35;9.67;;;7.17;;
13660;SDS011;6903;49.480;11.102;2023-03-12T02:56:00;9.97;;;6.70;;
13660;SDS011;6903;49.480;11.102;2023-03-12T02:58:26;8.43;;;6.47;;
13660;SDS011;6903;49.480;11.102;2023-03-12T03:00:51;9.50;;;6.83;;
13660;SDS011;6903;49.480;11.102;2023-03-12T03:03:17;10.50;;;7.47;;
13660;SDS011;6903;49.480;11.102;2023-03-12T03:05:42;11.13;;;6.77;;
13660;SDS011;6903;49.480;11.102;2023-03-12T03:08:07;8.90;;;6.63;;
13660;SDS011;6903;49.480;11.102;2023-03-12T03:10:33;9.27;;;6.33;;
13660;SDS011;6903;49.480;11.102;2023-03-12T03:12:58;9.00;;;6.50;;
13660;SDS011;6903;49.480;11.102;2023-03-12T03:15:24;9.50;;;6.53;;
13660;SDS011;6903;49.480;11.102;2023-03-12T03:17:49;13.07;;;6.27;;
13660;SDS011;6903;49.480;11.102;2023-03-12T03:20:14;9.33;;;6.43;;
13660;SDS011;6903;49.480;11.102;2023-03-12T03:22:40;14.57;;;6.60;;
13660;SDS011;6903;49.480;11.102;2023-03-12T03:25:06;9.00;;;6.37;;
13660;SDS011;6903;49.480;11.102;2023-03-12T03:27:34;9.17;;;6.37;;
13660;SDS011;6903;49.480;11.102;2023-03-12T03:29:59;8.90;;;6.77;;
13660;SDS011;6903;49.480;11.102;2023-03-12T03:32:24;10.53;;;7.60;;
13660;SDS011;6903;49.480;11.102;2023-03-12T03:34:50;10.53;;;7.10;;
13660;SDS011;6903;49.480;11.102;2023-03-12T03:37:15;10.17;;;7.20;;
13660;SDS011;6903;49.480;11.102;2023-03-12T03:39:40;12.63;;;7.03;;
13660;SDS011;6903;49.480;11.102;2023-03-12T03:42:06;9.60;;;6.90;;
13660;SDS011;6903;49.480;11.102;2023-03-12T03:44:32;11.90;;;6.83;;
13660;SDS011;6903;49.480;11.102;2023-03-12T03:46:57;8.53;;;6.37;;
13660;SDS011;6903;49.480;11.102;2023-03-12T03:49:23;13.07;;;6.83;;
13660;SDS011;6903;49.480;11.102;2023-03-12T03:51:49;9.97;;;7.13;;
13660;SDS011;6903;49.480;11.102;2023-03-12T03:54:16;10.07;;;6.77;;
13660;SDS011;6903;49.480;11.102;2023-03-12T03:56:41;9.17;;;7.00;;
13660;SDS011;6903;49.480;11.102;2023-03-12T03:59:07;9.87;;;6.47;;
13660;SDS011;6903;49.480;11.102;2023-03-12T04:01:32;10.33;;;6.93;;
13660;SDS011;6903;49.480;11.102;2023-03-12T04:03:58;10.03;;;6.83;;
13660;SDS011;6903;49.480;11.102;2023-03-12T04:06:24;8.80;;;7.07;;
13660;SDS011;6903;49.480;11.102;2023-03-12T04:08:49;10.17;;;6.97;;
13660;SDS011;6903;49.480;11.102;2023-03-12T04:11:15;10.47;;;6.80;;
13660;SDS011;6903;49.480;11.102;2023-03-12T04:13:43;9.77;;;6.77;;
13660;SDS011;6903;49.480;11.102;2023-03-12T04:16:09;10.57;;;7.37;;
13660;SDS011;6903;49.480;11.102;2023-03-12T04:18:35;10.50;;;6.47;;
13660;SDS011;6903;49.480;11.102;2023-03-12T04:21:02;9.20;;;6.90;;
13660;SDS011;6903;49.480;11.102;2023-03-12T04:23:28;9.70;;;6.97;;
13660;SDS011;6903;49.480;11.102;2023-03-12T04:25:53;11.77;;;6.83;;
13660;SDS011;6903;49.480;11.102;2023-03-12T04:28:18;9.70;;;6.10;;
13660;SDS011;6903;49.480;11.102;2023-03-12T04:30:44;10.77;;;6.37;;
13660;SDS011;6903;49.480;11.102;2023-03-12T04:33:09;10.43;;;6.93;;
13660;SDS011;6903;49.480;11.102;2023-03-12T04:35:35;11.10;;;6.87;;
13660;SDS011;6903;49.480;11.102;2023-03-12T04:38:00;9.17;;;6.40;;
13660;SDS011;6903;49.480;11.102;2023-03-12T04:40:26;9.67;;;6.30;;
13660;SDS011;6903;49.480;11.102;2023-03-12T04:42:51;11.63;;;6.70;;
13660;SDS011;6903;49.480;11.102;2023-03-12T04:45:17;10.80;;;6.83;;
13660;SDS011;6903;49.480;11.102;2023-03-12T04:47:42;11.80;;;6.33;;
13660;SDS011;6903;49.480;11.102;2023-03-12T04:50:08;10.63;;;6.50;;
13660;SDS011;6903;49.480;11.102;2023-03-12T04:52:34;8.63;;;6.10;;
13660;SDS011;6903;49.480;11.102;2023-03-12T04:54:59;8.10;;;5.77;;
13660;SDS011;6903;49.480;11.102;2023-03-12T04:57:25;8.70;;;6.33;;
13660;SDS011;6903;49.480;11.102;2023-03-12T04:59:50;11.00;;;6.63;;
13660;SDS011;6903;49.480;11.102;2023-03-12T05:02:16;8.07;;;5.97;;
13660;SDS011;6903;49.480;11.102;2023-03-12T05:04:41;8.80;;;6.77;;
13660;SDS011;6903;49.480;11.102;2023-03-12T05:07:06;9.03;;;6.20;;
13660;SDS011;6903;49.480;11.102;2023-03-12T05:09:32;11.10;;;6.87;;
13660;SDS011;6903;49.480;11.102;2023-03-12T05:11:57;9.10;;;6.37;;
13660;SDS011;6903;49.480;11.102;2023-03-12T05:14:22;9.80;;;6.23;;
13660;SDS011;6903;49.480;11.102;2023-03-12T05:16:48;9.80;;;6.80;;
13660;SDS011;6903;49.480;11.102;2023-03-12T05:19:13;8.33;;;6.00;;
13660;SDS011;6903;49.480;11.102;2023-03-12T05:21:39;9.03;;;6.67;;
13660;SDS011;6903;49.480;11.102;2023-03-12T05:24:06;9.07;;;6.80;;
13660;SDS011;6903;49.480;11.102;2023-03-12T05:26:33;10.27;;;6.47;;
13660;SDS011;6903;49.480;11.102;2023-03-12T05:28:59;10.07;;;6.37;;
13660;SDS011;6903;49.480;11.102;2023-03-12T05:31:25;9.47;;;6.30;;
13660;SDS011;6903;49.480;11.102;2023-03-12T05:33:51;9.47;;;6.60;;
13660;SDS011;6903;49.480;11.102;2023-03-12T05:36:17;8.17;;;5.90;;
13660;SDS011;6903;49.480;11.102;2023-03-12T05:38:43;8.73;;;6.87;;
13660;SDS011;6903;49.480;11.102;2023-03-12T05:41:09;10.00;;;6.30;;
13660;SDS011;6903;49.480;11.102;2023-03-12T05:43:43;10.80;;;6.40;;
13660;SDS011;6903;49.480;11.102;2023-03-12T05:46:09;10.03;;;6.50;;
13660;SDS011;6903;49.480;11.102;2023-03-12T05:48:34;9.80;;;6.67;;
13660;SDS011;6903;49.480;11.102;2023-03-12T05:51:00;8.90;;;6.17;;
13660;SDS011;6903;49.480;11.102;2023-03-12T05:53:25;8.97;;;6.30;;
13660;SDS011;6903;49.480;11.102;2023-03-12T05:55:50;10.17;;;6.03;;
13660;SDS011;6903;49.480;11.102;2023-03-12T05:58:16;9.67;;;6.20;;
13660;SDS011;6903;49.480;11.102;2023-03-12T06:00:41;8.20;;;5.93;;
13660;SDS011;6903;49.480;11.102;2023-03-12T06:03:08;11.30;;;6.17;;
13660;SDS011;6903;49.480;11.102;2023-03-12T06:05:34;7.67;;;6.30;;
13660;SDS011;6903;49.480;11.102;2023-03-12T06:08:00;8.00;;;5.73;;
13660;SDS011;6903;49.480;11.102;2023-03-12T06:10:27;8.57;;;5.80;;
13660;SDS011;6903;49.480;11.102;2023-03-12T06:12:52;9.60;;;5.53;;
13660;SDS011;6903;49.480;11.102;2023-03-12T06:15:18;10.47;;;5.67;;
13660;SDS011;6903;49.480;11.102;2023-03-12T06:17:43;8.87;;;6.17;;
13660;SDS011;6903;49.480;11.102;2023-03-12T06:20:09;11.67;;;5.17;;
13660;SDS011;6903;49.480;11.102;2023-03-12T06:22:35;7.63;;;5.50;;
13660;SDS011;6903;49.480;11.102;2023-03-12T06:25:00;6.73;;;5.43;;
13660;SDS011;6903;49.480;11.102;2023-03-12T06:27:25;8.53;;;5.47;;
13660;SDS011;6903;49.480;11.102;2023-03-12T06:29:51;9.73;;;5.00;;
13660;SDS011;6903;49.480;11.102;2023-03-12T06:32:17;7.20;;;4.73;;
13660;SDS011;6903;49.480;11.102;2023-03-12T06:34:43;7.00;;;4.80;;
13660;SDS011;6903;49.480;11.102;2023-03-12T06:37:08;6.60;;;4.70;;
13660;SDS011;6903;49.480;11.102;2023-03-12T06:39:34;7.27;;;5.17;;
13660;SDS011;6903;49.480;11.102;2023-03-12T06:42:00;6.43;;;4.37;;
13660;SDS011;6903;49.480;11.102;2023-03-12T06:44:25;7.77;;;4.47;;
13660;SDS011;6903;49.480;11.102;2023-03-12T06:46:51;7.20;;;4.40;;
13660;SDS011;6903;49.480;11.102;2023-03-12T06:49:16;7.23;;;5.00;;
13660;SDS011;6903;49.480;11.102;2023-03-12T06:51:42;6.73;;;4.33;;
13660;SDS011;6903;49.480;11.102;2023-03-12T06:54:07;5.93;;;4.37;;
13660;SDS011;6903;49.480;11.102;2023-03-12T06:56:32;6.60;;;4.33;;
13660;SDS011;6903;49.480;11.102;2023-03-12T06:58:58;7.63;;;4.17;;
13660;SDS011;6903;49.480;11.102;2023-03-12T07:01:23;7.40;;;4.03;;
13660;SDS011;6903;49.480;11.102;2023-03-12T07:03:49;4.77;;;3.60;;
13660;SDS011;6903;49.480;11.102;2023-03-12T07:06:15;6.30;;;3.83;;
13660;SDS011;6903;49.480;11.102;2023-03-12T07:08:42;5.30;;;3.70;;
13660;SDS011;6903;49.480;11.102;2023-03-12T07:11:07;4.90;;;3.70;;
13660;SDS011;6903;49.480;11.102;2023-03-12T07:13:33;5.07;;;3.90;;
13660;SDS011;6903;49.480;11.102;2023-03-12T07:15:59;6.23;;;3.80;;
13660;SDS011;6903;49.480;11.102;2023-03-12T07:18:24;6.60;;;4.00;;
13660;SDS011;6903;49.480;11.102;2023-03-12T07:20:50;5.47;;;3.57;;
13660;SDS011;6903;49.480;11.102;2023-03-12T07:23:16;5.47;;;4.10;;
13660;SDS011;6903;49.480;11.102;2023-03-12T07:25:42;5.10;;;4.10;;
13660;SDS011;6903;49.480;11.102;2023-03-12T07:28:08;4.87;;;4.10;;
13660;SDS011;6903;49.480;11.102;2023-03-12T07:30:34;4.77;;;3.60;;
13660;SDS011;6903;49.480;11.102;2023-03-12T07:33:00;6.07;;;4.97;;
13660;SDS011;6903;49.480;11.102;2023-03-12T07:35:26;5.40;;;3.37;;
13660;SDS011;6903;49.480;11.102;2023-03-12T07:37:52;5.43;;;3.70;;
13660;SDS011;6903;49.480;11.102;2023-03-12T07:40:17;5.00;;;3.63;;
13660;SDS011;6903;49.480;11.102;2023-03-12T07:42:43;5.70;;;3.70;;
13660;SDS011;6903;49.480;11.102;2023-03-12T07:45:08;5.07;;;3.70;;
13660;SDS011;6903;49.480;11.102;2023-03-12T07:47:34;5.03;;;3.70;;
13660;SDS011;6903;49.480;11.102;2023-03-12T07:49:59;5.60;;;4.13;;
13660;SDS011;6903;49.480;11.102;2023-03-12T07:52:25;4.80;;;3.57;;
13660;SDS011;6903;49.480;11.102;2023-03-12T07:54:51;6.20;;;3.30;;
13660;SDS011;6903;49.480;11.102;2023-03-12T07:57:18;5.37;;;3.27;;
13660;SDS011;6903;49.480;11.102;2023-03-12T07:59:44;4.20;;;3.60;;
13660;SDS011;6903;49.480;11.102;2023-03-12T08:02:11;4.30;;;3.23;;
13660;SDS011;6903;49.480;11.102;2023-03-12T08:04:36;5.93;;;3.60;;
13660;SDS011;6903;49.480;11.102;2023-03-12T08:07:01;5.20;;;3.40;;
13660;SDS011;6903;49.480;11.102;2023-03-12T08:09:27;5.60;;;3.10;;
13660;SDS011;6903;49.480;11.102;2023-03-12T08:11:53;3.40;;;3.10;;
13660;SDS011;6903;49.480;11.102;2023-03-12T08:14:18;6.63;;;3.80;;
13660;SDS011;6903;49.480;11.102;2023-03-12T08:16:44;7.87;;;4.00;;
13660;SDS011;6903;49.480;11.102;2023-03-12T08:19:09;4.23;;;3.40;;
13660;SDS011;6903;49.480;11.102;2023-03-12T08:21:34;6.97;;;4.30;;
13660;SDS011;6903;49.480;11.102;2023-03-12T08:23:59;5.60;;;3.63;;
13660;SDS011;6903;49.480;11.102;2023-03-12T08:26:25;6.23;;;3.40;;
13660;SDS011;6903;49.480;11.102;2023-03-12T08:28:50;10.93;;;3.63;;
13660;SDS011;6903;49.480;11.102;2023-03-12T08:31:15;4.63;;;3.17;;
13660;SDS011;6903;49.480;11.102;2023-03-12T08:33:41;3.97;;;3.13;;
13660;SDS011;6903;49.480;11.102;2023-03-12T08:36:07;7.63;;;4.00;;
13660;SDS011;6903;49.480;11.102;2023-03-12T08:38:33;5.70;;;3.50;;
13660;SDS011;6903;49.480;11.102;2023-03-12T08:40:59;3.70;;;3.00;;
13660;SDS011;6903;49.480;11.102;2023-03-12T08:43:25;6.73;;;3.63;;
13660;SDS011;6903;49.480;11.102;2023-03-12T08:45:53;5.07;;;2.90;;
13660;SDS011;6903;49.480;11.102;2023-03-12T08:48:19;3.57;;;3.00;;
13660;SDS011;6903;49.480;11.102;2023-03-12T08:50:44;5.53;;;3.17;;
13660;SDS011;6903;49.480;11.102;2023-03-12T08:53:10;5.13;;;2.93;;
13660;SDS011;6903;49.480;11.102;2023-03-12T08:55:35;5.10;;;3.33;;
13660;SDS011;6903;49.480;11.102;2023-03-12T08:58:01;7.40;;;3.63;;
13660;SDS011;6903;49.480;11.102;2023-03-12T09:00:26;5.80;;;3.23;;
13660;SDS011;6903;49.480;11.102;2023-03-12T09:02:51;5.17;;;2.80;;
13660;SDS011;6903;49.480;11.102;2023-03-12T09:05:18;5.13;;;3.37;;
13660;SDS011;6903;49.480;11.102;2023-03-12T09:07:44;3.70;;;3.30;;
13660;SDS011;6903;49.480;11.102;2023-03-12T09:10:09;4.57;;;3.40;;
13660;SDS011;6903;49.480;11.102;2023-03-12T09:12:35;5.87;;;3.70;;
13660;SDS011;6903;49.480;11.102;2023-03-12T09:15:00;6.00;;;3.70;;
13660;SDS011;6903;49.480;11.102;2023-03-12T09:17:27;5.77;;;3.40;;
13660;SDS011;6903;49.480;11.102;2023-03-12T09:19:54;4.47;;;3.27;;
13660;SDS011;6903;49.480;11.102;2023-03-12T09:22:19;6.97;;;3.73;;
13660;SDS011;6903;49.480;11.102;2023-03-12T09:24:44;3.70;;;3.30;;
13660;SDS011;6903;49.480;11.102;2023-03-12T09:27:10;4.50;;;3.80;;
13660;SDS011;6903;49.480;11.102;2023-03-12T09:29:35;3.73;;;2.90;;
13660;SDS011;6903;49.480;11.102;2023-03-12T09:32:01;4.17;;;3.17;;
13660;SDS011;6903;49.480;11.102;2023-03-12T09:34:26;6.07;;;3.30;;
13660;SDS011;6903;49.480;11.102;2023-03-12T09:36:51;4.07;;;2.83;;
13660;SDS011;6903;49.480;11.102;2023-03-12T09:39:16;4.93;;;3.00;;
13660;SDS011;6903;49.480;11.102;2023-03-12T09:41:43;3.50;;;2.87;;
13660;SDS011;6903;49.480;11.102;2023-03-12T09:44:19;4.57;;;3.00;;
13660;SDS011;6903;49.480;11.102;2023-03-12T09:47:00;5.40;;;3.13;;
13660;SDS011;6903;49.480;11.102;2023-03-12T09:49:42;5.07;;;3.13;;
13660;SDS011;6903;49.480;11.102;2023-03-12T09:52:23;5.30;;;3.20;;
13660;SDS011;6903;49.480;11.102;2023-03-12T09:57:31;4.17;;;2.83;;
13660;SDS011;6903;49.480;11.102;2023-03-12T09:59:57;5.07;;;3.17;;
13660;SDS011;6903;49.480;11.102;2023-03-12T10:02:30;6.00;;;3.40;;
13660;SDS011;6903;49.480;11.102;2023-03-12T10:05:36;6.07;;;3.10;;
13660;SDS011;6903;49.480;11.102;2023-03-12T10:08:18;5.67;;;3.67;;
13660;SDS011;6903;49.480;11.102;2023-03-12T10:10:55;3.77;;;2.90;;
13660;SDS011;6903;49.480;11.102;2023-03-12T10:14:05;5.53;;;3.47;;
13660;SDS011;6903;49.480;11.102;2023-03-12T10:27:19;3.70;;;2.83;;
13660;SDS011;6903;49.480;11.102;2023-03-12T10:29:48;4.13;;;2.60;;
13660;SDS011;6903;49.480;11.102;2023-03-12T10:32:17;4.63;;;2.60;;
13660;SDS011;6903;49.480;11.102;2023-03-12T10:38:25;4.00;;;3.13;;
13660;SDS011;6903;49.480;11.102;2023-03-12T10:40:39;6.60;;;3.40;;
13660;SDS011;6903;49.480;11.102;2023-03-12T10:43:05;6.40;;;3.93;;
13660;SDS011;6903;49.480;11.102;2023-03-12T10:48:33;6.20;;;3.87;;
13660;SDS011;6903;49.480;11.102;2023-03-12T10:53:30;8.40;;;3.50;;
13660;SDS011;6903;49.480;11.102;2023-03-12T10:56:17;5.07;;;3.50;;
13660;SDS011;6903;49.480;11.102;2023-03-12T10:58:50;5.40;;;3.40;;
13660;SDS011;6903;49.480;11.102;2023-03-12T11:03:42;5.83;;;3.50;;
13660;SDS011;6903;49.480;11.102;2023-03-12T11:06:08;4.67;;;3.50;;
13660;SDS011;6903;49.480;11.102;2023-03-12T11:08:43;5.30;;;3.20;;
13660;SDS011;6903;49.480;11.102;2023-03-12T11:11:32;4.70;;;3.40;;
13660;SDS011;6903;49.480;11.102;2023-03-12T11:14:15;4.33;;;3.50;;
13660;SDS011;6903;49.480;11.102;2023-03-12T11:16:46;6.67;;;3.83;;
13660;SDS011;6903;49.480;11.102;2023-03-12T11:19:12;5.97;;;4.10;;
13660;SDS011;6903;49.480;11.102;2023-03-12T11:21:39;5.87;;;4.07;;
13660;SDS011;6903;49.480;11.102;2023-03-12T11:24:22;5.60;;;4.20;;
13660;SDS011;6903;49.480;11.102;2023-03-12T11:26:49;5.03;;;4.23;;
13660;SDS011;6903;49.480;11.102;2023-03-12T11:29:26;7.23;;;4.17;;
13660;SDS011;6903;49.480;11.102;2023-03-12T11:34:27;4.20;;;3.47;;
13660;SDS011;6903;49.480;11.102;2023-03-12T11:36:57;4.97;;;3.70;;
13660;SDS011;6903;49.480;11.102;2023-03-12T11:45:01;5.63;;;3.87;;
13660;SDS011;6903;49.480;11.102;2023-03-12T11:53:30;7.33;;;4.00;;
13660;SDS011;6903;49.480;11.102;2023-03-12T11:56:20;6.67;;;4.10;;
13660;SDS011;6903;49.480;11.102;2023-03-12T12:13:20;7.10;;;4.50;;
13660;SDS011;6903;49.480;11.102;2023-03-12T12:30:02;8.23;;;5.23;;
13660;SDS011;6903;49.480;11.102;2023-03-12T12:35:53;8.33;;;5.67;;
13660;SDS011;6903;49.480;11.102;2023-03-12T12:38:36;7.03;;;5.90;;
13660;SDS011;6903;49.480;11.102;2023-03-12T12:41:08;10.83;;;6.33;;
13660;SDS011;6903;49.480;11.102;2023-03-12T12:43:39;10.73;;;6.70;;
13660;SDS011;6903;49.480;11.102;2023-03-12T12:46:13;8.63;;;6.80;;
13660;SDS011;6903;49.480;11.102;2023-03-12T12:48:42;8.30;;;6.47;;
13660;SDS011;6903;49.480;11.102;2023-03-12T12:51:10;7.57;;;5.47;;
13660;SDS011;6903;49.480;11.102;2023-03-12T12:56:31;9.00;;;6.77;;
13660;SDS011;6903;49.480;11.102;2023-03-12T13:01:59;8.97;;;7.23;;
13660;SDS011;6903;49.480;11.102;2023-03-12T13:04:33;8.33;;;7.20;;
13660;SDS011;6903;49.480;11.102;2023-03-12T13:14:57;11.40;;;7.43;;
13660;SDS011;6903;49.480;11.102;2023-03-12T13:17:25;10.50;;;7.70;;
13660;SDS011;6903;49.480;11.102;2023-03-12T13:25:32;11.93;;;8.30;;
13660;SDS011;6903;49.480;11.102;2023-03-12T13:30:54;10.33;;;7.90;;
13660;SDS011;6903;49.480;11.102;2023-03-12T13:38:59;9.97;;;7.67;;
13660;SDS011;6903;49.480;11.102;2023-03-12T13:42:24;10.90;;;8.40;;
13660;SDS011;6903;49.480;11.102;2023-03-12T13:46:46;10.97;;;7.60;;
13660;SDS011;6903;49.480;11.102;2023-03-12T13:49:14;10.57;;;8.10;;
13660;SDS011;6903;49.480;11.102;2023-03-12T13:51:42;8.93;;;7.30;;
13660;SDS011;6903;49.480;11.102;2023-03-12T13:54:14;9.63;;;7.50;;
13660;SDS011;6903;49.480;11.102;2023-03-12T13:56:44;10.20;;;7.30;;
13660;SDS011;6903;49.480;11.102;2023-03-12T13:59:17;10.67;;;7.40;;
13660;SDS011;6903;49.480;11.102;2023-03-12T14:01:47;9.30;;;7.87;;
13660;SDS011;6903;49.480;11.102;2023-03-12T14:04:17;11.20;;;7.80;;
13660;SDS011;6903;49.480;11.102;2023-03-12T14:06:52;9.17;;;7.67;;
13660;SDS011;6903;49.480;11.102;2023-03-12T14:09:38;10.07;;;7.57;;
13660;SDS011;6903;49.480;11.102;2023-03-12T14:12:33;8.27;;;7.17;;
13660;SDS011;6903;49.480;11.102;2023-03-12T14:15:12;9.57;;;7.30;;
13660;SDS011;6903;49.480;11.102;2023-03-12T14:17:52;9.87;;;7.30;;
13660;SDS011;6903;49.480;11.102;2023-03-12T14:20:24;10.57;;;7.43;;
13660;SDS011;6903;49.480;11.102;2023-03-12T14:22:53;7.67;;;6.87;;
13660;SDS011;6903;49.480;11.102;2023-03-12T14:28:02;7.40;;;6.23;;
13660;SDS011;6903;49.480;11.102;2023-03-12T14:31:20;8.10;;;7.07;;
13660;SDS011;6903;49.480;11.102;2023-03-12T14:33:33;7.93;;;6.70;;
13660;SDS011;6903;49.480;11.102;2023-03-12T14:36:14;8.10;;;6.70;;
13660;SDS011;6903;49.480;11.102;2023-03-12T14:38:43;8.67;;;6.20;;
13660;SDS011;6903;49.480;11.102;2023-03-12T14:41:21;8.37;;;6.77;;
13660;SDS011;6903;49.480;11.102;2023-03-12T14:43:53;6.77;;;6.07;;
13660;SDS011;6903;49.480;11.102;2023-03-12T14:46:28;7.80;;;6.00;;
13660;SDS011;6903;49.480;11.102;2023-03-12T14:48:54;7.13;;;5.17;;
13660;SDS011;6903;49.480;11.102;2023-03-12T14:51:21;7.70;;;5.53;;
13660;SDS011;6903;49.480;11.102;2023-03-12T14:53:47;6.97;;;5.70;;
13660;SDS011;6903;49.480;11.102;2023-03-12T14:56:14;5.97;;;5.37;;
13660;SDS011;6903;49.480;11.102;2023-03-12T14:58:49;5.77;;;5.17;;
13660;SDS011;6903;49.480;11.102;2023-03-12T15:01:17;6.13;;;5.13;;
13660;SDS011;6903;49.480;11.102;2023-03-12T15:03:50;5.47;;;4.80;;
13660;SDS011;6903;49.480;11.102;2023-03-12T15:06:23;7.17;;;4.63;;
13660;SDS011;6903;49.480;11.102;2023-03-12T15:08:55;7.10;;;5.00;;
13660;SDS011;6903;49.480;11.102;2023-03-12T15:11:22;5.27;;;4.33;;
13660;SDS011;6903;49.480;11.102;2023-03-12T15:13:51;5.37;;;4.37;;
13660;SDS011;6903;49.480;11.102;2023-03-12T15:16:18;5.17;;;4.13;;
13660;SDS011;6903;49.480;11.102;2023-03-12T15:18:45;5.20;;;4.23;;
13660;SDS011;6903;49.480;11.102;2023-03-12T15:21:12;6.17;;;4.20;;
13660;SDS011;6903;49.480;11.102;2023-03-12T15:23:38;4.80;;;4.30;;
13660;SDS011;6903;49.480;11.102;2023-03-12T15:26:07;4.90;;;4.40;;
13660;SDS011;6903;49.480;11.102;2023-03-12T15:28:39;5.73;;;4.27;;
13660;SDS011;6903;49.480;11.102;2023-03-12T15:31:06;6.10;;;4.53;;
13660;SDS011;6903;49.480;11.102;2023-03-12T15:33:34;6.87;;;4.50;;
13660;SDS011;6903;49.480;11.102;2023-03-12T15:36:00;4.70;;;4.13;;
13660;SDS011;6903;49.480;11.102;2023-03-12T15:38:32;4.80;;;4.30;;
13660;SDS011;6903;49.480;11.102;2023-03-12T15:41:04;5.17;;;4.10;;
13660;SDS011;6903;49.480;11.102;2023-03-12T15:43:33;4.37;;;3.80;;
13660;SDS011;6903;49.480;11.102;2023-03-12T15:46:03;4.40;;;4.00;;
13660;SDS011;6903;49.480;11.102;2023-03-12T15:51:02;5.73;;;3.63;;
13660;SDS011;6903;49.480;11.102;2023-03-12T15:53:28;5.10;;;3.67;;
13660;SDS011;6903;49.480;11.102;2023-03-12T15:58:44;4.10;;;3.57;;
13660;SDS011;6903;49.480;11.102;2023-03-12T16:01:16;4.90;;;3.80;;
13660;SDS011;6903;49.480;11.102;2023-03-12T16:03:52;5.33;;;3.80;;
13660;SDS011;6903;49.480;11.102;2023-03-12T16:06:18;5.47;;;4.17;;
13660;SDS011;6903;49.480;11.102;2023-03-12T16:08:52;6.33;;;3.53;;
13660;SDS011;6903;49.480;11.102;2023-03-12T16:11:19;5.73;;;3.87;;
13660;SDS011;6903;49.480;11.102;2023-03-12T16:13:47;7.10;;;3.73;;
13660;SDS011;6903;49.480;11.102;2023-03-12T16:16:14;5.73;;;3.30;;
13660;SDS011;6903;49.480;11.102;2023-03-12T16:18:40;6.43;;;3.67;;
13660;SDS011;6903;49.480;11.102;2023-03-12T16:21:06;4.70;;;2.97;;
13660;SDS011;6903;49.480;11.102;2023-03-12T16:23:33;4.30;;;3.33;;
13660;SDS011;6903;49.480;11.102;2023-03-12T16:25:59;5.90;;;3.93;;
13660;SDS011;6903;49.480;11.102;2023-03-12T16:28:25;5.47;;;3.47;;
13660;SDS011;6903;49.480;11.102;2023-03-12T16:30:51;4.33;;;3.23;;
13660;SDS011;6903;49.480;11.102;2023-03-12T16:33:18;7.10;;;3.93;;
13660;SDS011;6903;49.480;11.102;2023-03-12T16:35:45;7.10;;;3.43;;
13660;SDS011;6903;49.480;11.102;2023-03-12T16:38:10;8.03;;;4.07;;
13660;SDS011;6903;49.480;11.102;2023-03-12T16:40:37;5.43;;;4.00;;
13660;SDS011;6903;49.480;11.102;2023-03-12T16:43:06;5.40;;;3.57;;